createdAt,value
2018-02-04T00:00:36.528Z,70.17
2018-02-04T00:01:36.476Z,70.17
2018-02-04T00:02:36.422Z,70.26
2018-02-04T00:03:36.370Z,70.26
2018-02-04T00:04:36.318Z,70.17
2018-02-04T00:05:36.265Z,70.36
2018-02-04T00:06:36.212Z,70.45
2018-02-04T00:07:36.160Z,70.17
2018-02-04T00:08:36.107Z,69.70
2018-02-04T00:09:36.055Z,69.79
2018-02-04T00:10:36.002Z,69.60
2018-02-04T00:11:35.949Z,69.60
2018-02-04T00:12:35.997Z,69.70
2018-02-04T00:13:35.845Z,69.70
2018-02-04T00:14:35.792Z,69.70
2018-02-04T00:15:35.795Z,69.41
2018-02-04T00:16:35.686Z,69.70
2018-02-04T00:17:35.634Z,69.60
2018-02-04T00:18:35.581Z,69.98
2018-02-04T00:19:35.529Z,69.41
2018-02-04T00:20:35.476Z,69.60
2018-02-04T00:21:35.425Z,69.22
2018-02-04T00:22:35.371Z,69.32
2018-02-04T00:23:35.319Z,69.60
2018-02-04T00:24:35.266Z,69.51
2018-02-04T00:25:35.214Z,69.60
2018-02-04T00:26:35.161Z,69.32
2018-02-04T00:27:35.108Z,68.84
2018-02-04T00:28:35.056Z,68.65
2018-02-04T00:29:35.004Z,68.65
2018-02-04T00:30:34.950Z,68.75
2018-02-04T00:31:34.898Z,68.75
2018-02-04T00:32:34.847Z,68.65
2018-02-04T00:33:34.893Z,68.94
2018-02-04T00:34:34.740Z,69.03
2018-02-04T00:35:34.690Z,68.94
2018-02-04T00:36:34.835Z,68.94
2018-02-04T00:37:34.586Z,69.03
2018-02-04T00:38:34.530Z,69.13
2018-02-04T00:39:34.477Z,68.75
2018-02-04T00:40:34.425Z,68.94
2018-02-04T00:41:34.373Z,68.94
2018-02-04T00:42:34.344Z,68.46
2018-02-04T00:43:34.269Z,68.46
2018-02-04T00:44:34.215Z,68.84
2018-02-04T00:45:34.162Z,68.75
2018-02-04T00:46:34.116Z,68.65
2018-02-04T00:47:34.112Z,68.56
2018-02-04T00:48:34.004Z,68.56
2018-02-04T00:49:33.951Z,68.94
2018-02-04T00:50:33.899Z,68.18
2018-02-04T00:51:33.853Z,68.37
2018-02-04T00:53:33.742Z,68.08
2018-02-04T00:54:33.791Z,68.75
2018-02-04T00:55:33.636Z,68.94
2018-02-04T00:56:33.584Z,69.13
2018-02-04T00:57:33.531Z,68.94
2018-02-04T00:58:33.478Z,68.56
2018-02-04T00:59:33.426Z,68.75
2018-02-04T01:00:33.374Z,69.03
2018-02-04T01:01:33.422Z,68.65
2018-02-04T01:02:33.269Z,68.65
2018-02-04T01:03:33.216Z,68.46
2018-02-04T01:04:33.164Z,68.65
2018-02-04T01:05:33.111Z,69.03
2018-02-04T01:06:33.061Z,69.03
2018-02-04T01:07:33.156Z,68.65
2018-02-04T01:08:32.954Z,68.46
2018-02-04T01:09:32.902Z,68.94
2018-02-04T01:10:32.849Z,69.32
2018-02-04T01:11:32.797Z,69.03
2018-02-04T01:12:32.744Z,68.94
2018-02-04T01:13:32.695Z,68.94
2018-02-04T01:14:32.639Z,69.03
2018-02-04T01:15:32.587Z,69.32
2018-02-04T01:16:32.535Z,69.32
2018-02-04T01:17:32.483Z,69.22
2018-02-04T01:18:32.432Z,69.60
2018-02-04T01:19:32.378Z,69.51
2018-02-04T01:20:32.325Z,69.60
2018-02-04T01:21:32.273Z,69.70
2018-02-04T01:22:32.220Z,69.70
2018-02-04T01:23:32.169Z,69.32
2018-02-04T01:24:32.116Z,69.32
2018-02-04T01:25:32.063Z,69.60
2018-02-04T01:26:32.011Z,69.13
2018-02-04T01:27:31.962Z,69.41
2018-02-04T01:28:31.906Z,69.41
2018-02-04T01:29:31.904Z,69.32
2018-02-04T01:30:31.801Z,69.51
2018-02-04T01:31:31.749Z,69.41
2018-02-04T01:32:31.696Z,69.41
2018-02-04T01:33:31.644Z,69.22
2018-02-04T01:34:31.591Z,69.22
2018-02-04T01:35:31.538Z,69.22
2018-02-04T01:36:31.485Z,69.32
2018-02-04T01:37:31.434Z,69.22
2018-02-04T01:38:31.383Z,69.13
2018-02-04T01:39:31.329Z,69.41
2018-02-04T01:40:31.280Z,69.60
2018-02-04T01:41:31.224Z,69.41
2018-02-04T01:42:31.170Z,69.70
2018-02-04T01:43:31.118Z,69.13
2018-02-04T01:44:32.254Z,69.32
2018-02-04T01:45:31.014Z,69.41
2018-02-04T01:46:30.960Z,69.51
2018-02-04T01:47:30.910Z,69.13
2018-02-04T01:48:30.854Z,69.32
2018-02-04T01:49:30.805Z,69.60
2018-02-04T01:50:30.750Z,69.32
2018-02-04T01:51:30.697Z,69.13
2018-02-04T01:52:30.645Z,69.22
2018-02-04T01:53:30.644Z,69.22
2018-02-04T01:54:30.538Z,68.94
2018-02-04T01:55:30.486Z,68.75
2018-02-04T01:56:30.434Z,68.56
2018-02-04T01:57:30.383Z,68.56
2018-02-04T01:58:30.328Z,68.65
2018-02-04T01:59:30.276Z,68.75
2018-02-04T02:00:30.223Z,68.90
2018-02-04T02:01:30.171Z,68.94
2018-02-04T02:02:30.117Z,68.94
2018-02-04T02:03:30.065Z,68.81
2018-02-04T02:04:30.013Z,68.94
2018-02-04T02:05:29.960Z,68.65
2018-02-04T02:06:29.909Z,68.56
2018-02-04T02:07:29.853Z,68.27
2018-02-04T02:08:29.851Z,68.46
2018-02-04T02:09:29.749Z,67.99
2018-02-04T02:10:29.700Z,67.80
2018-02-04T02:11:29.642Z,67.96
2018-02-04T02:12:29.590Z,68.05
2018-02-04T02:13:29.538Z,67.99
2018-02-04T02:14:29.484Z,67.80
2018-02-04T02:15:29.832Z,67.96
2018-02-04T02:16:29.729Z,67.86
2018-02-04T02:17:29.777Z,67.90
2018-02-04T02:18:29.623Z,67.68
2018-02-04T02:19:29.570Z,67.86
2018-02-04T02:20:29.468Z,68.15
2018-02-04T02:21:29.315Z,67.58
2018-02-04T02:22:29.312Z,67.39
2018-02-04T02:23:29.209Z,67.30
2018-02-04T02:24:29.106Z,67.80
2018-02-04T02:25:29.004Z,67.11
2018-02-04T02:26:28.850Z,67.14
2018-02-04T02:27:28.897Z,67.14
2018-02-04T02:28:28.745Z,67.14
2018-02-04T02:29:28.692Z,67.14
2018-02-04T02:30:28.639Z,67.33
2018-02-04T02:31:28.586Z,67.52
2018-02-04T02:32:28.534Z,67.43
2018-02-04T02:33:28.481Z,66.86
2018-02-04T02:34:28.428Z,67.43
2018-02-04T02:35:28.375Z,67.43
2018-02-04T02:36:28.322Z,67.43
2018-02-04T02:37:28.270Z,67.43
2018-02-04T02:38:28.216Z,67.24
2018-02-04T02:39:28.170Z,67.24
2018-02-04T02:40:28.111Z,67.05
2018-02-04T02:41:28.059Z,67.05
2018-02-04T02:42:28.006Z,67.52
2018-02-04T02:43:27.964Z,67.43
2018-02-04T02:44:27.900Z,67.43
2018-02-04T02:45:27.848Z,67.43
2018-02-04T02:46:27.794Z,66.95
2018-02-04T02:47:27.742Z,67.05
2018-02-04T02:48:27.690Z,66.86
2018-02-04T02:49:27.645Z,67.05
2018-02-04T02:50:27.584Z,66.76
2018-02-04T02:51:27.532Z,66.76
2018-02-04T02:52:27.478Z,66.57
2018-02-04T02:53:27.426Z,66.67
2018-02-04T02:54:27.373Z,66.67
2018-02-04T02:55:27.321Z,66.76
2018-02-04T02:56:27.318Z,66.76
2018-02-04T02:57:27.215Z,66.76
2018-02-04T02:58:27.162Z,66.47
2018-02-04T02:59:27.110Z,66.38
2018-02-04T03:00:27.058Z,66.76
2018-02-04T03:01:27.005Z,66.76
2018-02-04T03:02:26.951Z,66.76
2018-02-04T03:03:26.899Z,66.47
2018-02-04T03:04:26.846Z,66.38
2018-02-04T03:05:26.793Z,66.47
2018-02-04T03:06:26.740Z,66.76
2018-02-04T03:07:26.687Z,66.86
2018-02-04T03:08:26.636Z,66.67
2018-02-04T03:09:26.583Z,66.76
2018-02-04T03:10:26.530Z,66.47
2018-02-04T03:11:26.478Z,66.67
2018-02-04T03:12:26.429Z,66.57
2018-02-04T03:13:26.372Z,66.82
2018-02-04T03:14:26.319Z,67.11
2018-02-04T03:15:26.267Z,67.20
2018-02-04T03:16:26.414Z,66.82
2018-02-04T03:17:26.162Z,67.49
2018-02-04T03:18:26.108Z,67.39
2018-02-04T03:19:26.056Z,67.20
2018-02-04T03:20:26.005Z,67.58
2018-02-04T03:21:25.950Z,67.39
2018-02-04T03:22:25.897Z,67.11
2018-02-04T03:23:25.844Z,67.30
2018-02-04T03:24:25.792Z,67.30
2018-02-04T03:25:25.739Z,67.39
2018-02-04T03:26:25.685Z,67.77
2018-02-04T03:27:25.633Z,67.39
2018-02-04T03:28:25.580Z,67.39
2018-02-04T03:29:25.527Z,67.86
2018-02-04T03:30:25.474Z,67.58
2018-02-04T03:31:25.426Z,67.96
2018-02-04T03:32:25.417Z,68.30
2018-02-04T03:33:25.517Z,68.96
2018-02-04T03:34:25.261Z,68.68
2018-02-04T03:35:25.214Z,68.68
2018-02-04T03:36:25.155Z,69.15
2018-02-04T03:37:25.102Z,69.34
2018-02-04T03:38:25.048Z,69.06
2018-02-04T03:39:24.995Z,69.53
2018-02-04T03:40:24.942Z,69.25
2018-02-04T03:42:24.835Z,69.53
2018-02-04T03:43:24.782Z,69.72
2018-02-04T03:44:24.734Z,70.48
2018-02-04T03:45:24.675Z,70.01
2018-02-04T03:46:24.621Z,70.29
2018-02-04T03:47:24.568Z,70.67
2018-02-04T03:48:24.515Z,70.48
2018-02-04T03:49:24.462Z,70.57
2018-02-04T03:50:24.408Z,71.04
2018-02-04T03:51:24.404Z,70.67
2018-02-04T03:52:24.303Z,70.76
2018-02-04T03:53:24.247Z,71.33
2018-02-04T03:54:24.193Z,71.23
2018-02-04T03:55:24.139Z,70.95
2018-02-04T03:56:24.086Z,70.86
2018-02-04T03:57:24.033Z,70.95
2018-02-04T03:58:24.029Z,71.42
2018-02-04T03:59:23.926Z,71.52
2018-02-04T04:00:23.872Z,71.42
2018-02-04T04:01:23.818Z,71.52
2018-02-04T04:02:23.764Z,71.14
2018-02-04T04:03:23.712Z,71.33
2018-02-04T04:04:23.758Z,71.42
2018-02-04T04:05:23.604Z,71.23
2018-02-04T04:06:23.550Z,71.80
2018-02-04T04:07:23.497Z,71.42
2018-02-04T04:08:23.443Z,71.71
2018-02-04T04:09:23.390Z,71.52
2018-02-04T04:10:23.336Z,71.90
2018-02-04T04:11:23.282Z,71.80
2018-02-04T04:12:23.230Z,71.80
2018-02-04T04:13:23.176Z,71.80
2018-02-04T04:14:23.125Z,72.09
2018-02-04T04:15:23.068Z,71.52
2018-02-04T04:16:23.015Z,72.28
2018-02-04T04:17:22.961Z,72.47
2018-02-04T04:18:22.908Z,72.37
2018-02-04T04:19:22.853Z,72.47
2018-02-04T04:20:22.800Z,72.37
2018-02-04T04:21:22.747Z,72.66
2018-02-04T04:22:22.692Z,72.56
2018-02-04T04:23:22.639Z,73.32
2018-02-04T04:24:22.585Z,72.75
2018-02-04T04:25:22.533Z,72.85
2018-02-04T04:26:22.478Z,72.85
2018-02-04T04:27:22.424Z,72.47
2018-02-04T04:28:22.371Z,72.47
2018-02-04T04:29:22.318Z,72.90
2018-02-04T04:30:22.263Z,72.52
2018-02-04T04:31:22.210Z,72.75
2018-02-04T04:32:22.156Z,73.13
2018-02-04T04:33:22.153Z,73.41
2018-02-04T04:34:22.049Z,73.60
2018-02-04T04:35:21.995Z,73.32
2018-02-04T04:36:21.942Z,73.03
2018-02-04T04:37:21.890Z,72.94
2018-02-04T04:38:21.837Z,72.90
2018-02-04T04:39:21.781Z,73.22
2018-02-04T04:40:21.727Z,73.50
2018-02-04T04:41:21.675Z,73.88
2018-02-04T04:42:21.621Z,73.69
2018-02-04T04:43:21.566Z,73.66
2018-02-04T04:44:21.513Z,73.69
2018-02-04T04:45:21.460Z,73.41
2018-02-04T04:46:21.405Z,73.69
2018-02-04T04:47:21.351Z,73.88
2018-02-04T04:48:21.297Z,74.07
2018-02-04T04:49:21.244Z,74.17
2018-02-04T04:50:21.240Z,73.88
2018-02-04T04:51:21.136Z,74.07
2018-02-04T04:52:21.083Z,74.07
2018-02-04T04:53:21.030Z,74.17
2018-02-04T04:54:20.975Z,74.45
2018-02-04T04:55:20.922Z,74.55
2018-02-04T04:56:20.868Z,75.12
2018-02-04T04:57:20.814Z,74.45
2018-02-04T04:58:20.760Z,74.45
2018-02-04T04:59:20.707Z,74.64
2018-02-04T05:00:20.653Z,74.26
2018-02-04T05:01:20.600Z,74.45
2018-02-04T05:02:20.545Z,74.60
2018-02-04T05:03:20.493Z,74.69
2018-02-04T05:04:20.438Z,74.69
2018-02-04T05:05:20.385Z,75.07
2018-02-04T05:06:20.530Z,75.45
2018-02-04T05:07:20.277Z,74.98
2018-02-04T05:08:20.223Z,75.36
2018-02-04T05:09:20.170Z,75.55
2018-02-04T05:10:20.126Z,75.55
2018-02-04T05:11:20.062Z,75.36
2018-02-04T05:12:20.008Z,75.74
2018-02-04T05:13:19.954Z,75.55
2018-02-04T05:14:19.905Z,75.64
2018-02-04T05:15:19.850Z,74.98
2018-02-04T05:16:19.793Z,75.93
2018-02-04T05:17:19.739Z,76.02
2018-02-04T05:18:19.685Z,75.17
2018-02-04T05:19:19.632Z,75.55
2018-02-04T05:20:19.578Z,75.64
2018-02-04T05:21:19.524Z,75.55
2018-02-04T05:22:19.672Z,75.55
2018-02-04T05:23:19.416Z,75.45
2018-02-04T05:24:19.362Z,75.64
2018-02-04T05:25:19.311Z,75.64
2018-02-04T05:26:19.254Z,75.55
2018-02-04T05:27:19.202Z,76.31
2018-02-04T05:28:19.147Z,75.64
2018-02-04T05:29:19.099Z,75.64
2018-02-04T05:30:19.039Z,75.64
2018-02-04T05:31:18.985Z,75.64
2018-02-04T05:32:18.931Z,75.45
2018-02-04T05:33:18.878Z,75.55
2018-02-04T05:34:18.833Z,75.55
2018-02-04T05:35:18.770Z,75.36
2018-02-04T05:36:18.720Z,75.36
2018-02-04T05:37:18.662Z,75.36
2018-02-04T05:38:18.608Z,75.36
2018-02-04T05:39:18.556Z,75.64
2018-02-04T05:40:18.501Z,75.93
2018-02-04T05:41:18.447Z,76.59
2018-02-04T05:42:18.392Z,76.50
2018-02-04T05:43:18.338Z,76.40
2018-02-04T05:44:18.285Z,76.40
2018-02-04T05:45:18.231Z,76.31
2018-02-04T05:46:18.176Z,76.21
2018-02-04T05:47:18.125Z,76.59
2018-02-04T05:48:18.069Z,76.59
2018-02-04T05:49:18.015Z,76.40
2018-02-04T05:50:17.961Z,76.50
2018-02-04T05:51:17.913Z,76.40
2018-02-04T05:52:17.852Z,76.50
2018-02-04T05:53:17.802Z,76.40
2018-02-04T05:54:17.746Z,76.50
2018-02-04T05:55:18.146Z,76.12
2018-02-04T05:56:17.637Z,76.40
2018-02-04T05:57:17.983Z,76.50
2018-02-04T05:58:17.878Z,76.50
2018-02-04T05:59:17.774Z,76.21
2018-02-04T06:00:17.671Z,76.78
2018-02-04T06:01:17.670Z,76.59
2018-02-04T06:02:17.562Z,76.59
2018-02-04T06:03:17.458Z,76.97
2018-02-04T06:04:17.306Z,76.97
2018-02-04T06:05:17.354Z,76.59
2018-02-04T06:06:17.196Z,77.15
2018-02-04T06:07:17.092Z,77.06
2018-02-04T06:08:16.988Z,77.06
2018-02-04T06:09:16.935Z,77.44
2018-02-04T06:10:16.930Z,76.97
2018-02-04T06:11:16.826Z,76.97
2018-02-04T06:12:16.772Z,76.87
2018-02-04T06:13:16.719Z,76.78
2018-02-04T06:14:16.664Z,76.87
2018-02-04T06:15:16.610Z,76.97
2018-02-04T06:16:16.555Z,77.06
2018-02-04T06:17:16.502Z,77.91
2018-02-04T06:18:16.448Z,77.82
2018-02-04T06:19:16.394Z,77.53
2018-02-04T06:20:16.340Z,77.82
2018-02-04T06:21:16.286Z,77.53
2018-02-04T06:22:16.232Z,77.63
2018-02-04T06:23:16.180Z,77.34
2018-02-04T06:24:16.125Z,77.25
2018-02-04T06:25:16.074Z,77.63
2018-02-04T06:26:16.016Z,77.53
2018-02-04T06:27:16.112Z,77.44
2018-02-04T06:28:15.908Z,77.34
2018-02-04T06:29:15.854Z,77.72
2018-02-04T06:30:15.800Z,77.72
2018-02-04T06:31:15.746Z,77.53
2018-02-04T06:32:15.692Z,77.53
2018-02-04T06:33:15.639Z,77.72
2018-02-04T06:34:15.584Z,77.34
2018-02-04T06:35:15.530Z,77.25
2018-02-04T06:36:15.476Z,77.82
2018-02-04T06:37:15.423Z,77.91
2018-02-04T06:38:15.368Z,77.82
2018-02-04T06:39:15.314Z,77.72
2018-02-04T06:40:15.261Z,77.72
2018-02-04T06:41:15.209Z,77.82
2018-02-04T06:42:15.152Z,77.63
2018-02-04T06:43:15.098Z,77.63
2018-02-04T06:44:15.047Z,77.82
2018-02-04T06:45:14.991Z,77.91
2018-02-04T06:46:14.936Z,77.06
2018-02-04T06:47:14.983Z,77.72
2018-02-04T06:48:14.829Z,77.82
2018-02-04T06:49:14.775Z,78.10
2018-02-04T06:50:14.727Z,78.10
2018-02-04T06:51:14.670Z,77.82
2018-02-04T06:52:14.613Z,77.82
2018-02-04T06:53:14.560Z,77.72
2018-02-04T06:54:14.505Z,77.82
2018-02-04T06:55:14.452Z,77.91
2018-02-04T06:56:14.398Z,77.91
2018-02-04T06:57:14.343Z,77.91
2018-02-04T06:58:14.289Z,77.44
2018-02-04T06:59:14.235Z,77.53
2018-02-04T07:00:14.184Z,77.63
2018-02-04T07:01:14.128Z,77.63
2018-02-04T07:02:14.076Z,77.63
2018-02-04T07:03:14.020Z,77.34
2018-02-04T07:04:13.966Z,77.53
2018-02-04T07:05:13.913Z,77.44
2018-02-04T07:06:13.858Z,77.34
2018-02-04T07:07:13.805Z,77.72
2018-02-04T07:08:13.751Z,77.34
2018-02-04T07:09:13.698Z,77.34
2018-02-04T07:10:13.644Z,77.82
2018-02-04T07:11:13.589Z,77.15
2018-02-04T07:12:13.536Z,77.20
2018-02-04T07:13:13.483Z,76.91
2018-02-04T07:14:13.428Z,77.01
2018-02-04T07:15:13.374Z,77.01
2018-02-04T07:16:13.320Z,77.01
2018-02-04T07:17:13.268Z,76.44
2018-02-04T07:18:13.213Z,76.91
2018-02-04T07:19:13.160Z,76.63
2018-02-04T07:20:13.159Z,76.34
2018-02-04T07:21:13.052Z,76.53
2018-02-04T07:22:12.999Z,76.15
2018-02-04T07:23:12.945Z,76.63
2018-02-04T07:24:12.892Z,76.15
2018-02-04T07:25:12.838Z,76.25
2018-02-04T07:26:12.784Z,76.53
2018-02-04T07:27:12.730Z,76.15
2018-02-04T07:28:12.677Z,76.06
2018-02-04T07:29:12.624Z,75.49
2018-02-04T07:30:12.570Z,75.68
2018-02-04T07:31:12.517Z,75.87
2018-02-04T07:32:12.464Z,76.06
2018-02-04T07:33:12.422Z,75.59
2018-02-04T07:34:12.356Z,75.43
2018-02-04T07:35:12.303Z,74.58
2018-02-04T07:36:12.301Z,73.58
2018-02-04T07:37:12.198Z,72.63
2018-02-04T07:38:12.147Z,71.34
2018-02-04T07:39:12.092Z,71.34
2018-02-04T07:40:12.039Z,70.15
2018-02-04T07:41:11.988Z,69.67
2018-02-04T07:42:11.936Z,69.01
2018-02-04T07:43:11.884Z,67.81
2018-02-04T07:44:11.833Z,67.62
2018-02-04T07:45:11.781Z,67.52
2018-02-04T07:46:11.730Z,67.21
2018-02-04T07:47:11.679Z,67.21
2018-02-04T07:48:11.628Z,67.30
2018-02-04T07:49:11.578Z,67.30
2018-02-04T07:50:11.532Z,67.93
2018-02-04T07:51:11.475Z,67.83
2018-02-04T07:52:11.426Z,68.02
2018-02-04T07:53:11.374Z,68.40
2018-02-04T07:54:11.322Z,68.12
2018-02-04T07:55:11.272Z,68.88
2018-02-04T07:56:11.221Z,68.59
2018-02-04T07:57:11.320Z,69.13
2018-02-04T07:58:11.118Z,69.51
2018-02-04T07:59:11.068Z,69.17
2018-02-04T08:00:11.017Z,69.51
2018-02-04T08:01:11.021Z,69.64
2018-02-04T08:02:10.915Z,69.41
2018-02-04T08:03:10.863Z,69.51
2018-02-04T08:04:10.812Z,69.54
2018-02-04T08:05:10.761Z,69.64
2018-02-04T08:06:10.709Z,69.41
2018-02-04T08:07:10.701Z,69.35
2018-02-04T08:08:10.609Z,68.59
2018-02-04T08:09:10.555Z,68.88
2018-02-04T08:10:10.503Z,68.59
2018-02-04T08:11:10.452Z,68.06
2018-02-04T08:12:10.401Z,67.68
2018-02-04T08:13:10.351Z,67.05
2018-02-04T08:14:10.300Z,66.33
2018-02-04T08:15:10.250Z,65.12
2018-02-04T08:16:10.199Z,63.07
2018-02-04T08:17:10.153Z,61.58
2018-02-04T08:18:10.100Z,59.71
2018-02-04T08:19:10.052Z,58.03
2018-02-04T08:20:10.004Z,56.92
2018-02-04T08:21:09.956Z,55.32
2018-02-04T08:22:09.906Z,54.11
2018-02-04T08:23:09.860Z,53.28
2018-02-04T08:24:09.813Z,52.16
2018-02-04T08:25:09.767Z,51.14
2018-02-04T08:26:09.720Z,50.38
2018-02-04T08:27:09.674Z,49.26
2018-02-04T08:28:09.629Z,48.59
2018-02-04T08:29:09.585Z,47.94
2018-02-04T08:30:09.539Z,47.49
2018-02-04T08:31:09.495Z,47.20
2018-02-04T08:32:09.457Z,46.44
2018-02-04T08:33:09.408Z,45.98
2018-02-04T08:34:09.364Z,45.70
2018-02-04T08:35:09.323Z,44.84
2018-02-04T08:36:09.279Z,44.36
2018-02-04T08:37:09.239Z,44.38
2018-02-04T08:38:09.193Z,44.57
2018-02-04T08:39:09.151Z,43.90
2018-02-04T08:40:09.111Z,42.94
2018-02-04T08:41:09.069Z,43.33
2018-02-04T08:42:09.026Z,42.18
2018-02-04T08:43:08.986Z,41.89
2018-02-04T08:44:08.943Z,42.11
2018-02-04T08:45:08.903Z,41.53
2018-02-04T08:46:08.861Z,41.15
2018-02-04T08:47:08.820Z,41.15
2018-02-04T08:48:08.844Z,41.05
2018-02-04T08:49:08.743Z,40.58
2018-02-04T08:50:08.698Z,40.29
2018-02-04T08:51:08.658Z,39.83
2018-02-04T08:52:08.618Z,39.73
2018-02-04T08:53:08.578Z,39.54
2018-02-04T08:54:08.536Z,39.25
2018-02-04T08:55:08.496Z,39.25
2018-02-04T08:56:08.461Z,39.06
2018-02-04T08:57:08.417Z,38.70
2018-02-04T08:58:08.377Z,38.70
2018-02-04T08:59:08.337Z,38.41
2018-02-04T09:00:08.298Z,38.22
2018-02-04T09:01:08.259Z,38.03
2018-02-04T09:02:08.219Z,37.65
2018-02-04T09:03:08.179Z,37.93
2018-02-04T09:04:08.140Z,37.55
2018-02-04T09:05:08.100Z,37.28
2018-02-04T09:06:08.061Z,36.88
2018-02-04T09:07:08.021Z,37.18
2018-02-04T09:08:07.982Z,36.42
2018-02-04T09:09:07.944Z,36.61
2018-02-04T09:10:07.905Z,36.04
2018-02-04T09:11:07.864Z,36.22
2018-02-04T09:12:07.825Z,36.42
2018-02-04T09:13:07.786Z,36.32
2018-02-04T09:14:07.746Z,35.84
2018-02-04T09:15:07.707Z,35.83
2018-02-04T09:16:07.670Z,36.32
2018-02-04T09:17:08.032Z,36.13
2018-02-04T09:18:07.890Z,35.84
2018-02-04T09:19:07.808Z,35.83
2018-02-04T09:20:07.811Z,35.73
2018-02-04T09:21:07.676Z,35.63
2018-02-04T09:22:07.582Z,35.73
2018-02-04T09:23:07.446Z,35.53
2018-02-04T09:24:07.354Z,35.73
2018-02-04T09:25:07.366Z,35.53
2018-02-04T09:26:07.275Z,35.35
2018-02-04T09:27:07.236Z,35.44
2018-02-04T09:28:07.197Z,35.25
2018-02-04T09:29:07.158Z,35.35
2018-02-04T09:30:07.117Z,35.63
2018-02-04T09:31:07.078Z,35.61
2018-02-04T09:32:07.039Z,35.61
2018-02-04T09:33:07.000Z,35.88
2018-02-04T09:34:06.960Z,36.27
2018-02-04T09:35:06.921Z,36.06
2018-02-04T09:36:06.882Z,36.33
2018-02-04T09:37:06.841Z,36.99
2018-02-04T09:38:06.801Z,37.17
2018-02-04T09:39:06.761Z,37.65
2018-02-04T09:40:06.722Z,38.30
2018-02-04T09:41:06.683Z,38.66
2018-02-04T09:42:06.641Z,39.32
2018-02-04T09:43:06.604Z,39.78
2018-02-04T09:44:06.562Z,40.34
2018-02-04T09:45:06.523Z,40.80
2018-02-04T09:46:06.481Z,42.03
2018-02-04T09:47:06.440Z,42.30
2018-02-04T09:48:06.399Z,42.77
2018-02-04T09:49:06.358Z,43.61
2018-02-04T09:50:06.337Z,44.56
2018-02-04T09:51:06.273Z,44.16
2018-02-04T09:52:06.232Z,44.35
2018-02-04T09:53:06.190Z,44.82
2018-02-04T09:54:06.146Z,45.01
2018-02-04T09:55:06.104Z,45.37
2018-02-04T09:56:06.061Z,45.47
2018-02-04T09:57:06.018Z,45.85
2018-02-04T09:58:05.973Z,45.85
2018-02-04T09:59:05.930Z,46.23
2018-02-04T10:00:05.886Z,46.33
2018-02-04T10:01:05.842Z,46.59
2018-02-04T10:02:05.797Z,47.16
2018-02-04T10:03:05.752Z,46.68
2018-02-04T10:04:05.758Z,46.97
2018-02-04T10:05:05.663Z,47.06
2018-02-04T10:06:05.619Z,46.88
2018-02-04T10:07:05.573Z,47.13
2018-02-04T10:08:05.527Z,48.18
2018-02-04T10:09:05.482Z,47.61
2018-02-04T10:10:05.435Z,47.61
2018-02-04T10:11:05.390Z,47.99
2018-02-04T10:12:05.344Z,48.18
2018-02-04T10:13:05.297Z,48.18
2018-02-04T10:14:05.250Z,48.27
2018-02-04T10:15:05.205Z,48.56
2018-02-04T10:16:05.159Z,49.13
2018-02-04T10:17:05.111Z,48.85
2018-02-04T10:18:05.114Z,49.04
2018-02-04T10:19:05.018Z,49.39
2018-02-04T10:20:04.971Z,49.51
2018-02-04T10:21:04.925Z,49.87
2018-02-04T10:22:04.876Z,49.96
2018-02-04T10:23:04.830Z,49.87
2018-02-04T10:24:04.783Z,50.15
2018-02-04T10:25:04.736Z,50.91
2018-02-04T10:26:04.687Z,50.72
2018-02-04T10:27:04.640Z,51.10
2018-02-04T10:28:04.592Z,50.53
2018-02-04T10:29:04.546Z,50.72
2018-02-04T10:30:04.497Z,50.81
2018-02-04T10:31:04.451Z,51.20
2018-02-04T10:32:04.403Z,50.72
2018-02-04T10:33:04.355Z,51.01
2018-02-04T10:34:04.306Z,51.10
2018-02-04T10:35:04.258Z,51.48
2018-02-04T10:36:04.211Z,51.67
2018-02-04T10:37:04.163Z,51.95
2018-02-04T10:38:04.115Z,51.86
2018-02-04T10:39:04.067Z,51.95
2018-02-04T10:40:04.019Z,51.86
2018-02-04T10:41:03.971Z,52.24
2018-02-04T10:42:03.922Z,52.14
2018-02-04T10:43:03.875Z,52.91
2018-02-04T10:44:03.827Z,52.81
2018-02-04T10:45:03.781Z,52.91
2018-02-04T10:46:03.731Z,52.43
2018-02-04T10:47:03.682Z,52.62
2018-02-04T10:48:03.634Z,53.00
2018-02-04T10:49:03.586Z,53.35
2018-02-04T10:50:03.537Z,53.07
2018-02-04T10:51:03.487Z,53.16
2018-02-04T10:52:03.440Z,53.07
2018-02-04T10:53:03.393Z,52.87
2018-02-04T10:54:03.349Z,52.97
2018-02-04T10:55:03.295Z,53.16
2018-02-04T10:56:03.247Z,53.83
2018-02-04T10:57:03.198Z,53.73
2018-02-04T10:58:03.149Z,54.02
2018-02-04T10:59:03.100Z,54.02
2018-02-04T11:00:03.052Z,53.83
2018-02-04T11:01:03.004Z,54.30
2018-02-04T11:02:02.954Z,54.21
2018-02-04T11:03:02.906Z,53.64
2018-02-04T11:04:02.858Z,54.21
2018-02-04T11:05:02.809Z,54.11
2018-02-04T11:06:02.763Z,54.21
2018-02-04T11:07:02.710Z,54.11
2018-02-04T11:08:02.663Z,54.21
2018-02-04T11:09:02.814Z,54.11
2018-02-04T11:10:02.565Z,54.02
2018-02-04T11:11:02.517Z,54.39
2018-02-04T11:12:02.529Z,54.11
2018-02-04T11:13:02.421Z,54.97
2018-02-04T11:14:02.370Z,54.87
2018-02-04T11:15:02.322Z,55.25
2018-02-04T11:16:02.273Z,55.25
2018-02-04T11:17:02.229Z,55.06
2018-02-04T11:18:02.175Z,55.06
2018-02-04T11:19:02.126Z,55.06
2018-02-04T11:20:02.083Z,55.06
2018-02-04T11:21:02.029Z,55.06
2018-02-04T11:22:01.980Z,55.16
2018-02-04T11:23:01.932Z,55.06
2018-02-04T11:24:01.889Z,55.16
2018-02-04T11:25:01.864Z,55.25
2018-02-04T11:26:01.785Z,55.09
2018-02-04T11:27:01.736Z,54.99
2018-02-04T11:28:01.688Z,55.37
2018-02-04T11:29:01.741Z,54.99
2018-02-04T11:30:01.590Z,54.78
2018-02-04T11:31:01.542Z,54.97
2018-02-04T11:32:01.493Z,55.44
2018-02-04T11:33:01.445Z,55.44
2018-02-04T11:34:01.396Z,55.06
2018-02-04T11:35:01.347Z,55.25
2018-02-04T11:36:01.300Z,55.44
2018-02-04T11:37:01.350Z,55.54
2018-02-04T11:38:01.200Z,55.79
2018-02-04T11:39:01.153Z,55.70
2018-02-04T11:40:01.104Z,55.89
2018-02-04T11:41:01.054Z,56.10
2018-02-04T11:42:01.005Z,55.98
2018-02-04T11:43:00.956Z,56.01
2018-02-04T11:44:00.907Z,56.20
2018-02-04T11:45:00.858Z,56.10
2018-02-04T11:46:00.809Z,56.01
2018-02-04T11:47:00.760Z,56.29
2018-02-04T11:48:00.711Z,55.82
2018-02-04T11:49:00.662Z,56.20
2018-02-04T11:50:00.613Z,56.58
2018-02-04T11:51:00.564Z,56.49
2018-02-04T11:52:00.517Z,56.10
2018-02-04T11:53:00.466Z,55.82
2018-02-04T11:54:00.419Z,56.01
2018-02-04T11:55:00.368Z,56.01
2018-02-04T11:57:00.273Z,54.90
2018-02-04T11:58:00.223Z,55.28
2018-02-04T11:59:00.173Z,55.37
2018-02-04T12:00:00.127Z,54.74
2018-02-04T12:01:00.094Z,53.78
2018-02-04T12:02:00.031Z,54.07
2018-02-04T12:02:59.979Z,53.97
2018-02-04T12:03:59.931Z,53.81
2018-02-04T12:04:59.883Z,53.34
2018-02-04T12:05:59.838Z,53.05
2018-02-04T12:06:59.794Z,53.34
2018-02-04T12:07:59.739Z,53.34
2018-02-04T12:08:59.696Z,53.24
2018-02-04T12:09:59.643Z,53.43
2018-02-04T12:10:59.596Z,52.96
2018-02-04T12:11:59.549Z,53.34
2018-02-04T12:12:59.501Z,53.43
2018-02-04T12:13:59.453Z,53.43
2018-02-04T12:14:59.406Z,53.34
2018-02-04T12:15:59.358Z,53.34
2018-02-04T12:16:59.811Z,53.05
2018-02-04T12:17:59.263Z,52.67
2018-02-04T12:18:59.215Z,53.05
2018-02-04T12:19:59.618Z,52.39
2018-02-04T12:20:59.472Z,52.10
2018-02-04T12:21:59.373Z,52.20
2018-02-04T12:22:59.376Z,52.10
2018-02-04T12:23:59.279Z,51.91
2018-02-04T12:24:59.132Z,51.84
2018-02-04T12:25:59.034Z,51.18
2018-02-04T12:26:59.153Z,51.27
2018-02-04T12:27:58.940Z,50.99
2018-02-04T12:28:58.843Z,50.92
2018-02-04T12:29:58.696Z,50.06
2018-02-04T12:30:58.651Z,49.96
2018-02-04T12:31:58.603Z,49.87
2018-02-04T12:32:58.556Z,49.68
2018-02-04T12:33:58.509Z,49.77
2018-02-04T12:34:58.462Z,49.40
2018-02-04T12:35:58.418Z,49.58
2018-02-04T12:36:58.372Z,49.68
2018-02-04T12:37:58.323Z,49.77
2018-02-04T12:38:58.275Z,49.87
2018-02-04T12:39:58.230Z,49.77
2018-02-04T12:40:58.188Z,49.87
2018-02-04T12:41:58.140Z,49.77
2018-02-04T12:42:58.091Z,49.58
2018-02-04T12:43:58.045Z,49.58
2018-02-04T12:44:57.999Z,49.49
2018-02-04T12:45:57.951Z,49.11
2018-02-04T12:46:57.905Z,49.11
2018-02-04T12:47:57.858Z,49.11
2018-02-04T12:48:57.814Z,49.58
2018-02-04T12:49:57.765Z,49.20
2018-02-04T12:50:57.721Z,49.65
2018-02-04T12:51:57.671Z,49.94
2018-02-04T12:52:57.626Z,50.13
2018-02-04T12:53:57.628Z,50.79
2018-02-04T12:54:57.532Z,51.18